Allisonia, Virginia
Current Conditions -  °F | °C
As of 5:15 PM on Thursday 23 Oct 2014 (Local Time) from KPSK Reporting Station
Clear Clear  
Wind Chill: 13°   Ceiling: Unl
Heat Index: 13°   Visibility: 10mi
Dew Point:   Wind: 9mph
Humidity: 61%   Direction: 330°NNW
Pressure: 30.07"   Gusts: 17mph
Location:  36.9752°N, 80.6434°W
Report Text: KPSK 232115Z AUTO 33008G15KT 310V010 10SM CLR 13/06 A3007 RMK AO2 T01300056
Loading
Personal Weather Stations






























Interactive Weather Map New forecast layout! Learn more

10-Day Weather Forecast

Advertisements
Track Severe Weather on mobile